Chalmette, LA (70044)

4:43 PM CDT on August 29, 2015 (GMT -0500)
Along the River | | Change Station
CLOSE
Current Station
Personal Weather Station
Location: Louisiana, LA
Elevation: 36 ft
Nearby Weather Stations

Elev 36 ft 29.87 °N, 89.95 °W | Updated 13 seconds ago

Overcast
Overcast
87.4 °F
Feels Like 90 °F
N
3.0
Wind Variable Wind from South
Gusts 10.0 mph

Today
High -- | Low -- °F
--% Chance of Precip.
Yesterday
High -- | Low -- °F
Precip. -- in
6:35 AM 7:26 PM
Full, 100% visible
Pressure 29.99 in
Visibility 10.0 miles
Clouds Mostly Cloudy 6500 ft
Heat Index 90 °F
Dew Point 67 °F
Humidity 51%
Rainfall 0.00 in
Snow Depth Not available.
UV 4 out of 12
Pollen 7.30 out of 12
Air Quality Not available.
Flu Activity Not available.
METAR KNEW 292053Z 10009KT 10SM BKN065 31/18 A3001 RMK AO2 SLP156 T03060183 58019
Pressure 29.99 in
Visibility 10.0 miles
Clouds Mostly Cloudy 6500 ft
Heat Index 90 °F
Dew Point 67 °F
Humidity 51%
Rainfall 0.00 in
Snow Depth Not available.
UV 4 out of 12
Pollen 7.30 out of 12
Air Quality Not available.
Flu Activity Not available.
METAR KNEW 292053Z 10009KT 10SM BKN065 31/18 A3001 RMK AO2 SLP156 T03060183 58019

10-Day Weather Forecast

×

Almanac

Astronomy

Aug. 29, 2015 Rise Set
Actual Time
Civil Twilight
Nautical Twilight
Astronomical Twilight
Moon
Length of Visible Light
Length of Day
Tomorrow will be .
, % of the Moon is Illuminated

Today's Extremes

State Highs State Lows

Community

WunderPhotos

Upload Photos

1,850,795 photos uploaded!

WunderBlogs® & News

Nearby

Air Quality

  Air Quality AQ Index Pollutant
Not available.

Snow Depth

Station Depth Elevation

Earthquake Activity

City Distance Mag. Time & Date
Minimum magnitude displayed is 2.5.

Coastal Water Temperatures

Place Temperature

Stations

Nearby Weather Stations

Station Location Temp. Windchill Dew Point Humidity Wind Precip. Elev Updated Type